createdAt,value
2022-12-27T00:02:35.950Z,100554.16
2022-12-27T00:05:22.996Z,100569.72
2022-12-27T00:08:09.878Z,100499.69
2022-12-27T00:10:56.869Z,100575.72
2022-12-27T00:13:43.764Z,100560.91
2022-12-27T00:16:33.210Z,100549.69
2022-12-27T00:19:20.450Z,100561.78
2022-12-27T00:22:07.491Z,100562.66
2022-12-27T00:24:54.296Z,100553.09
2022-12-27T00:27:41.461Z,100472.72
2022-12-27T00:30:29.730Z,100544.44
2022-12-27T00:33:16.832Z,100543.59
2022-12-27T00:36:03.811Z,100542.72
2022-12-27T00:38:51.970Z,100530.53
2022-12-27T00:41:40.023Z,100527.91
2022-12-27T00:44:27.007Z,100481.16
2022-12-27T00:47:14.041Z,100496.69
2022-12-27T00:50:01.174Z,100513.94
2022-12-27T00:52:48.135Z,100503.53
2022-12-27T00:55:35.293Z,100504.41
2022-12-27T00:58:22.497Z,100502.63
2022-12-27T01:01:11.239Z,100493.94
2022-12-27T01:03:58.497Z,100486.06
2022-12-27T01:06:48.144Z,100474.75
2022-12-27T01:09:34.980Z,100477.34
2022-12-27T01:12:21.947Z,100481.69
2022-12-27T01:15:08.867Z,100471.22
2022-12-27T01:17:56.012Z,100465.97
2022-12-27T01:20:43.018Z,100463.38
2022-12-27T01:23:30.032Z,100459.94
2022-12-27T01:26:27.959Z,100459.03
2022-12-27T01:29:15.038Z,100370.84
2022-12-27T01:32:02.140Z,100404.47
2022-12-27T01:34:49.104Z,100436.34
2022-12-27T01:37:36.312Z,100433.75
2022-12-27T01:40:23.510Z,100427.63
2022-12-27T01:43:13.250Z,100430.22
2022-12-27T01:46:00.241Z,100429.34
2022-12-27T01:48:47.254Z,100423.22
2022-12-27T01:51:34.494Z,100351.50
2022-12-27T01:54:21.406Z,100417.97
2022-12-27T01:57:08.479Z,100389.41
2022-12-27T01:59:56.158Z,100401.41
2022-12-27T02:02:43.533Z,100396.16
2022-12-27T02:05:33.985Z,100397.91
2022-12-27T02:08:35.054Z,100378.88
2022-12-27T02:11:23.189Z,100380.59
2022-12-27T02:14:10.227Z,100394.38
2022-12-27T02:16:57.258Z,100388.25
2022-12-27T02:19:51.638Z,100368.22
2022-12-27T02:23:06.865Z,100369.03
2022-12-27T02:26:27.750Z,100364.69
2022-12-27T02:29:53.132Z,100357.72
2022-12-27T02:32:56.002Z,100352.47
2022-12-27T02:35:52.766Z,100344.63
2022-12-27T02:38:44.869Z,100342.81
2022-12-27T02:41:31.008Z,100341.97
2022-12-27T02:44:17.367Z,100332.34
2022-12-27T02:47:03.769Z,100321.09
2022-12-27T02:49:52.230Z,100333.19
2022-12-27T02:52:58.620Z,100322.72
2022-12-27T02:56:15.698Z,100288.19
2022-12-27T02:59:17.753Z,100311.41
2022-12-27T03:02:38.859Z,100298.31
2022-12-27T03:05:31.672Z,100283.53
2022-12-27T03:08:47.060Z,100278.38
2022-12-27T03:11:34.456Z,100279.19
2022-12-27T03:14:36.977Z,100288.75
2022-12-27T03:17:33.827Z,100210.94
2022-12-27T03:20:26.654Z,100266.94
2022-12-27T03:23:13.673Z,100265.16
2022-12-27T03:26:04.207Z,100260.81
2022-12-27T03:28:51.175Z,100142.72
2022-12-27T03:31:47.528Z,100238.38
2022-12-27T03:34:52.012Z,100241.78
2022-12-27T03:37:43.797Z,100247.75
2022-12-27T03:40:39.718Z,100251.13
2022-12-27T03:43:33.417Z,100251.13
2022-12-27T03:46:21.868Z,100242.44
2022-12-27T03:49:20.735Z,100241.56
2022-12-27T03:52:35.893Z,100245.91
2022-12-27T03:55:28.445Z,100245.03
2022-12-27T03:58:18.550Z,100234.63
2022-12-27T04:01:05.483Z,100220.72
2022-12-27T04:03:52.450Z,100231.06
2022-12-27T04:06:39.492Z,100229.31
2022-12-27T04:09:24.665Z,100230.19
2022-12-27T04:12:10.192Z,100225.00
2022-12-27T04:14:55.420Z,100186.94
2022-12-27T04:17:40.929Z,100212.69
2022-12-27T04:20:26.958Z,100216.19
2022-12-27T04:23:12.555Z,100210.06
2022-12-27T04:25:58.064Z,100160.94
2022-12-27T04:28:43.631Z,100208.34
2022-12-27T04:31:29.278Z,100203.97
2022-12-27T04:34:14.930Z,100210.03
2022-12-27T04:37:02.088Z,100205.69
2022-12-27T04:39:49.691Z,100203.06
2022-12-27T04:42:35.222Z,100047.13
2022-12-27T04:45:21.261Z,100195.22
2022-12-27T04:48:06.637Z,100193.50
2022-12-27T04:50:52.298Z,100197.00
2022-12-27T04:53:40.075Z,100194.38
2022-12-27T04:56:27.281Z,100179.72
2022-12-27T04:59:12.951Z,100190.91
2022-12-27T05:01:59.262Z,100151.22
2022-12-27T05:04:46.462Z,100190.88
2022-12-27T05:07:34.518Z,100173.47
2022-12-27T05:10:22.552Z,100165.50
2022-12-27T05:13:08.256Z,100164.69
2022-12-27T05:15:55.217Z,100156.88
2022-12-27T05:18:42.908Z,100133.53
2022-12-27T05:21:29.867Z,100159.41
2022-12-27T05:24:15.302Z,100154.22
2022-12-27T05:27:02.422Z,100007.06
2022-12-27T05:29:50.739Z,100138.72
2022-12-27T05:32:37.756Z,100099.06
2022-12-27T05:35:24.959Z,100139.53
2022-12-27T05:38:13.492Z,100075.88
2022-12-27T05:41:00.738Z,100134.28
2022-12-27T05:43:48.670Z,100140.47
2022-12-27T05:46:39.263Z,100131.78
2022-12-27T05:49:26.266Z,100135.31
2022-12-27T05:52:13.255Z,100096.47
2022-12-27T05:55:00.060Z,100136.13
2022-12-27T05:57:47.065Z,100104.28
2022-12-27T06:00:34.498Z,100132.63
2022-12-27T06:03:23.471Z,100123.94
2022-12-27T06:06:10.390Z,100121.28
2022-12-27T06:08:58.217Z,100103.19
2022-12-27T06:11:45.152Z,100104.88
2022-12-27T06:14:32.160Z,100122.06
2022-12-27T06:17:19.270Z,100121.16
2022-12-27T06:20:06.399Z,100122.03
2022-12-27T06:22:53.283Z,100116.75
2022-12-27T06:25:40.249Z,100113.25
2022-12-27T06:28:27.099Z,100121.03
2022-12-27T06:31:14.262Z,100122.75
2022-12-27T06:34:01.368Z,100112.44
2022-12-27T06:36:48.337Z,100078.00
2022-12-27T06:39:35.261Z,100123.53
2022-12-27T06:42:22.252Z,100078.75
2022-12-27T06:45:09.194Z,100130.47
2022-12-27T06:47:56.299Z,100121.72
2022-12-27T06:50:43.141Z,100063.34
2022-12-27T06:53:30.049Z,100124.59
2022-12-27T06:56:16.947Z,100138.25
2022-12-27T06:59:05.135Z,100142.56
2022-12-27T07:01:52.320Z,100068.38
2022-12-27T07:04:40.114Z,100132.94
2022-12-27T07:07:26.999Z,100117.38
2022-12-27T07:10:13.815Z,100133.75
2022-12-27T07:13:00.708Z,100125.91
2022-12-27T07:15:47.770Z,100125.91
2022-12-27T07:18:35.095Z,100104.34
2022-12-27T07:21:31.226Z,100135.41
2022-12-27T07:24:18.264Z,100128.50
2022-12-27T07:27:05.301Z,100115.53
2022-12-27T07:29:52.178Z,100126.66
2022-12-27T07:32:39.469Z,100124.97
2022-12-27T07:35:26.601Z,100124.00
2022-12-27T07:38:13.540Z,100052.59
2022-12-27T07:41:00.456Z,100098.16
2022-12-27T07:43:53.406Z,100116.16
2022-12-27T07:46:43.718Z,100115.31
2022-12-27T07:49:31.433Z,100067.31
2022-12-27T07:52:19.205Z,100041.41
2022-12-27T07:55:06.505Z,100085.22
2022-12-27T07:57:53.314Z,100118.81
2022-12-27T08:00:40.432Z,100111.16
2022-12-27T08:03:27.437Z,100097.31
2022-12-27T08:06:14.465Z,100117.06
2022-12-27T08:09:03.809Z,100112.72
2022-12-27T08:11:50.715Z,100079.03
2022-12-27T08:14:37.668Z,100105.66
2022-12-27T08:17:31.434Z,100109.19
2022-12-27T08:20:18.495Z,100016.25
2022-12-27T08:23:05.287Z,100024.84
2022-12-27T08:25:52.387Z,100084.19
2022-12-27T08:28:39.237Z,100103.09
2022-12-27T08:31:28.283Z,100097.81
2022-12-27T08:34:16.553Z,100087.38
2022-12-27T08:37:03.410Z,100086.53
2022-12-27T08:39:50.215Z,100096.09
2022-12-27T08:42:37.164Z,100090.91
2022-12-27T08:45:24.364Z,100087.41
2022-12-27T08:48:11.434Z,100010.06
2022-12-27T08:50:58.395Z,100073.06
2022-12-27T08:53:45.259Z,100101.44
2022-12-27T08:56:32.130Z,100108.41
2022-12-27T08:59:19.018Z,100100.66
2022-12-27T09:02:06.155Z,100101.59
2022-12-27T09:04:53.119Z,100091.31
2022-12-27T09:07:40.179Z,100095.50
2022-12-27T09:10:27.726Z,100108.63
2022-12-27T09:13:14.579Z,100111.31
2022-12-27T09:16:02.652Z,100114.84
2022-12-27T09:18:49.574Z,100115.72
2022-12-27T09:21:37.972Z,100114.00
2022-12-27T09:24:24.975Z,100095.88
2022-12-27T09:27:11.815Z,100090.56
2022-12-27T09:29:58.767Z,100091.47
2022-12-27T09:32:45.671Z,100095.88
2022-12-27T09:35:36.921Z,100100.28
2022-12-27T09:38:26.173Z,100100.31
2022-12-27T09:41:19.984Z,100095.09
2022-12-27T09:44:22.423Z,100018.50
2022-12-27T09:47:18.622Z,100093.44
2022-12-27T09:50:10.952Z,100087.31
2022-12-27T09:53:03.149Z,100091.72
2022-12-27T09:55:52.918Z,100088.22
2022-12-27T09:59:09.157Z,100094.38
2022-12-27T10:01:58.338Z,100068.50
2022-12-27T10:05:17.698Z,100016.84
2022-12-27T10:08:33.045Z,100080.50
2022-12-27T10:11:28.900Z,100086.59
2022-12-27T10:14:21.676Z,100086.59
2022-12-27T10:17:53.662Z,100078.81
2022-12-27T10:20:53.385Z,100082.38
2022-12-27T10:23:45.978Z,100083.31
2022-12-27T10:26:38.942Z,100079.81
2022-12-27T10:29:42.767Z,100086.00
2022-12-27T10:32:32.547Z,100071.31
2022-12-27T10:35:22.572Z,100036.00
2022-12-27T10:38:09.641Z,100073.88
2022-12-27T10:41:10.671Z,100070.44
2022-12-27T10:44:01.634Z,100055.94
2022-12-27T10:46:51.361Z,100063.53
2022-12-27T10:49:45.191Z,100054.03
2022-12-27T10:52:41.109Z,100009.31
2022-12-27T10:55:58.180Z,100050.56
2022-12-27T10:58:58.771Z,100048.88
2022-12-27T11:01:49.135Z,100013.59
2022-12-27T11:04:41.669Z,100055.78
2022-12-27T11:07:28.512Z,100055.78
2022-12-27T11:10:35.319Z,100041.06
2022-12-27T11:13:27.103Z,100049.75
2022-12-27T11:16:16.455Z,100048.94
2022-12-27T11:19:08.179Z,100032.56
2022-12-27T11:21:59.410Z,99985.38
2022-12-27T11:24:46.594Z,100049.16
2022-12-27T11:27:45.970Z,100045.84
2022-12-27T11:31:09.517Z,100043.19
2022-12-27T11:34:00.262Z,100040.69
2022-12-27T11:37:00.775Z,100035.41
2022-12-27T11:40:04.641Z,100034.53
2022-12-27T11:43:00.592Z,100030.19
2022-12-27T11:46:10.603Z,100024.13
2022-12-27T11:49:02.167Z,99915.84
2022-12-27T11:51:59.259Z,99992.34
2022-12-27T11:54:53.507Z,100017.19
2022-12-27T11:58:12.084Z,100018.91
2022-12-27T12:01:09.400Z,100018.13
2022-12-27T12:04:30.277Z,100023.34
2022-12-27T12:07:35.459Z,100012.94
2022-12-27T12:10:43.941Z,99970.81
2022-12-27T12:13:42.934Z,100012.06
2022-12-27T12:16:51.020Z,100014.72
2022-12-27T12:19:59.310Z,100004.31
2022-12-27T12:23:11.066Z,100010.41
2022-12-27T12:26:10.542Z,100003.44
2022-12-27T12:29:34.714Z,99996.53
2022-12-27T12:32:45.000Z,99967.25
2022-12-27T12:35:48.762Z,99993.97
2022-12-27T12:38:56.782Z,99986.19
2022-12-27T12:42:14.954Z,99936.28
2022-12-27T12:45:16.876Z,99981.88
2022-12-27T12:48:36.686Z,99985.38
2022-12-27T12:51:48.236Z,99995.84
2022-12-27T12:55:06.841Z,99997.59
2022-12-27T12:58:12.236Z,99986.31
2022-12-27T13:01:15.340Z,99991.53
2022-12-27T13:04:20.761Z,99979.34
2022-12-27T13:07:10.541Z,99987.19
2022-12-27T13:10:09.561Z,99989.81
2022-12-27T13:13:18.243Z,99988.97
2022-12-27T13:16:42.608Z,99992.47
2022-12-27T13:19:35.227Z,99996.81
2022-12-27T13:23:00.396Z,99997.75
2022-12-27T13:26:03.033Z,99990.81
2022-12-27T13:29:15.438Z,99981.41
2022-12-27T13:32:26.296Z,99988.25
2022-12-27T13:35:47.305Z,99983.91
2022-12-27T13:38:46.312Z,99983.91
2022-12-27T13:41:43.787Z,99982.16
2022-12-27T13:45:05.247Z,99988.25
2022-12-27T13:48:45.812Z,99981.31
2022-12-27T13:51:50.696Z,99972.56
2022-12-27T13:55:04.919Z,99976.94
2022-12-27T13:58:03.970Z,99982.16
2022-12-27T14:01:11.813Z,99968.31
2022-12-27T14:04:11.692Z,99974.31
2022-12-27T14:07:04.617Z,99963.88
2022-12-27T14:10:00.408Z,99966.47
2022-12-27T14:13:04.240Z,99970.03
2022-12-27T14:16:28.815Z,99957.00
2022-12-27T14:19:50.996Z,99968.38
2022-12-27T14:22:43.974Z,99965.75
2022-12-27T14:25:36.929Z,99957.06
2022-12-27T14:28:54.734Z,99954.50
2022-12-27T14:32:21.512Z,99959.69
2022-12-27T14:35:42.407Z,99951.84
2022-12-27T14:39:23.301Z,99958.81
2022-12-27T14:42:42.532Z,99954.47
2022-12-27T14:45:41.881Z,99954.53
2022-12-27T14:48:50.627Z,99938.13
2022-12-27T14:52:08.739Z,99962.31
2022-12-27T14:55:25.850Z,99939.16
2022-12-27T14:58:28.285Z,99957.97
2022-12-27T15:01:14.280Z,99944.13
2022-12-27T15:04:13.860Z,99951.94
2022-12-27T15:07:00.831Z,99945.00
2022-12-27T15:09:45.464Z,99867.63
2022-12-27T15:12:44.424Z,99932.09
2022-12-27T15:15:56.527Z,99933.88
2022-12-27T15:19:01.614Z,99943.44
2022-12-27T15:22:23.070Z,99939.06
2022-12-27T15:25:34.945Z,99944.31
2022-12-27T15:28:27.510Z,99943.44
2022-12-27T15:31:20.573Z,99945.16
2022-12-27T15:34:16.418Z,99950.38
2022-12-27T15:37:08.592Z,99934.72
2022-12-27T15:39:58.233Z,99943.50
2022-12-27T15:43:02.884Z,99937.47
2022-12-27T15:46:02.684Z,99941.84
2022-12-27T15:48:58.609Z,99939.22
2022-12-27T15:51:50.903Z,99945.28
2022-12-27T15:55:02.946Z,99940.97
2022-12-27T15:57:55.568Z,99952.28
2022-12-27T16:00:46.549Z,99913.50
2022-12-27T16:03:54.756Z,99942.72
2022-12-27T16:06:55.647Z,99937.47
2022-12-27T16:09:45.803Z,99931.41
2022-12-27T16:12:55.879Z,99902.16
2022-12-27T16:16:04.892Z,99928.72
2022-12-27T16:19:16.668Z,99915.75
2022-12-27T16:22:06.222Z,99899.34
2022-12-27T16:24:53.338Z,99907.81
2022-12-27T16:27:53.026Z,99881.19
2022-12-27T16:30:55.288Z,99915.69
2022-12-27T16:33:48.001Z,99875.25
2022-12-27T16:36:57.756Z,99913.91
2022-12-27T16:40:18.589Z,99912.19
2022-12-27T16:43:25.780Z,99901.75
2022-12-27T16:46:15.795Z,99913.09
2022-12-27T16:49:19.230Z,99907.88
2022-12-27T16:52:33.810Z,99911.34
2022-12-27T17:06:36.193Z,99923.53
2022-12-27T17:09:33.774Z,99913.97
2022-12-27T17:12:32.456Z,99924.41
2022-12-27T17:15:24.629Z,99903.69
2022-12-27T17:18:15.061Z,99866.81
2022-12-27T17:21:04.850Z,99916.63
2022-12-27T17:24:04.272Z,99920.97
2022-12-27T17:27:06.332Z,99923.59
2022-12-27T17:30:02.484Z,99934.06
2022-12-27T17:33:18.992Z,99928.84
2022-12-27T17:36:24.059Z,99924.50
2022-12-27T17:39:27.634Z,99918.44
2022-12-27T17:42:50.021Z,99903.88
2022-12-27T17:45:52.303Z,99872.88
2022-12-27T17:48:49.426Z,99911.50
2022-12-27T17:51:42.589Z,99906.31
2022-12-27T17:54:46.570Z,99915.91
2022-12-27T17:57:35.377Z,99907.22
2022-12-27T18:00:23.923Z,99901.31
2022-12-27T18:03:14.395Z,99866.03
2022-12-27T18:06:04.126Z,99892.69
2022-12-27T18:08:52.945Z,99818.84
2022-12-27T18:11:40.707Z,99922.06
2022-12-27T18:14:33.732Z,99864.38
2022-12-27T18:17:26.790Z,99854.94
2022-12-27T18:20:15.676Z,99835.16
2022-12-27T18:23:03.001Z,99903.00
2022-12-27T18:25:58.505Z,99912.56
2022-12-27T18:28:51.050Z,99909.94
2022-12-27T18:31:43.682Z,99920.41
2022-12-27T18:35:12.073Z,99916.28
2022-12-27T18:37:59.226Z,99926.50
2022-12-27T18:40:46.391Z,99905.88
2022-12-27T18:43:38.012Z,99930.03
2022-12-27T18:46:25.110Z,99925.84
2022-12-27T18:49:13.025Z,99934.41
2022-12-27T18:51:59.913Z,99832.97
2022-12-27T18:54:49.529Z,99921.41
2022-12-27T18:57:57.157Z,99893.94
2022-12-27T19:00:45.668Z,99897.47
2022-12-27T19:03:40.816Z,99870.97
2022-12-27T19:06:31.137Z,99924.13
2022-12-27T19:09:17.985Z,99946.72
2022-12-27T19:12:20.835Z,99923.38
2022-12-27T19:15:07.860Z,99935.47
2022-12-27T19:17:58.473Z,99876.19
2022-12-27T19:20:49.376Z,99926.09
2022-12-27T19:23:57.440Z,99944.22
2022-12-27T19:26:50.197Z,99944.19
2022-12-27T19:29:42.822Z,99948.53
2022-12-27T19:32:30.107Z,99945.06
2022-12-27T19:35:20.226Z,99945.19
2022-12-27T19:38:07.227Z,99950.28
2022-12-27T19:40:58.188Z,99954.69
2022-12-27T19:43:54.315Z,99915.94
2022-12-27T19:46:41.252Z,99957.31
2022-12-27T19:49:44.724Z,99857.47
2022-12-27T19:52:43.934Z,99944.31
2022-12-27T19:55:38.998Z,99919.16
2022-12-27T19:58:25.821Z,99937.31
2022-12-27T20:01:13.511Z,99941.69
2022-12-27T20:04:00.499Z,99854.00
2022-12-27T20:06:48.429Z,99937.34
2022-12-27T20:09:38.182Z,99932.13
2022-12-27T20:12:25.328Z,99913.22
2022-12-27T20:15:12.320Z,99942.59
2022-12-27T20:17:59.270Z,99943.47
2022-12-27T20:20:46.122Z,99932.16
2022-12-27T20:23:33.906Z,99930.44
2022-12-27T20:26:20.999Z,99903.75
2022-12-27T20:29:09.500Z,99927.88
2022-12-27T20:31:57.232Z,99941.81
2022-12-27T20:34:44.310Z,99895.22
2022-12-27T20:37:31.352Z,99918.47
2022-12-27T20:40:18.269Z,99934.91
2022-12-27T20:43:05.354Z,99914.25
2022-12-27T20:45:52.359Z,99822.25
2022-12-27T20:48:39.173Z,99834.28
2022-12-27T20:51:31.025Z,99923.66
2022-12-27T20:54:20.630Z,99930.66
2022-12-27T20:57:07.676Z,99935.06
2022-12-27T20:59:54.533Z,99930.78
2022-12-27T21:02:41.545Z,99917.81
2022-12-27T21:05:28.827Z,99918.88
2022-12-27T21:08:15.833Z,99926.78
2022-12-27T21:11:02.825Z,99843.50
2022-12-27T21:13:49.707Z,99957.09
2022-12-27T21:16:43.086Z,99956.28
2022-12-27T21:19:30.102Z,99956.44
2022-12-27T21:22:17.614Z,99959.97
2022-12-27T21:25:04.681Z,99849.78
2022-12-27T21:27:51.705Z,99938.50
2022-12-27T21:30:38.660Z,99922.97
2022-12-27T21:33:25.615Z,99936.69
2022-12-27T21:36:33.237Z,99855.94
2022-12-27T21:39:20.250Z,99924.72
2022-12-27T21:42:07.612Z,99955.81
2022-12-27T21:44:54.674Z,99948.88
2022-12-27T21:47:41.473Z,99952.34
2022-12-27T21:50:33.867Z,99941.91
2022-12-27T21:53:23.938Z,99950.66
2022-12-27T21:56:17.839Z,99935.03
2022-12-27T21:59:06.104Z,99931.53
2022-12-27T22:01:53.318Z,99929.84
2022-12-27T22:04:40.987Z,99895.50
2022-12-27T22:07:28.030Z,99935.97
2022-12-27T22:10:14.947Z,99939.47
2022-12-27T22:13:02.470Z,99936.00
2022-12-27T22:15:49.303Z,99938.59
2022-12-27T22:18:36.180Z,99932.66
2022-12-27T22:21:26.326Z,99955.16
2022-12-27T22:24:15.127Z,99942.16
2022-12-27T22:27:01.994Z,99936.94
2022-12-27T22:29:49.264Z,99928.25
2022-12-27T22:32:36.086Z,99933.47
2022-12-27T22:35:23.322Z,99904.28
2022-12-27T22:38:10.208Z,99907.63
2022-12-27T22:40:57.283Z,99892.13
2022-12-27T22:43:44.099Z,99920.47
2022-12-27T22:46:51.670Z,99916.25
2022-12-27T22:49:39.780Z,99798.44
2022-12-27T22:52:26.745Z,99821.66
2022-12-27T22:55:13.627Z,99919.72
2022-12-27T22:58:01.198Z,99854.28
2022-12-27T23:00:48.050Z,99876.53
2022-12-27T23:03:35.025Z,99879.09
2022-12-27T23:06:21.950Z,99909.25
2022-12-27T23:09:09.060Z,99883.41
2022-12-27T23:11:59.573Z,99898.81
2022-12-27T23:14:46.672Z,99904.84
2022-12-27T23:17:34.482Z,99836.03
2022-12-27T23:20:21.474Z,99893.63
2022-12-27T23:23:08.299Z,99885.00
2022-12-27T23:25:55.762Z,99908.22
2022-12-27T23:28:43.458Z,99898.66
2022-12-27T23:31:32.460Z,99903.84
2022-12-27T23:34:24.105Z,99886.47
2022-12-27T23:37:14.509Z,99888.16
2022-12-27T23:40:01.374Z,99881.19
2022-12-27T23:42:48.214Z,99854.59
2022-12-27T23:45:35.564Z,99887.22
2022-12-27T23:48:22.509Z,99886.38
2022-12-27T23:51:09.408Z,99888.97
2022-12-27T23:53:56.764Z,99873.38
2022-12-27T23:56:52.482Z,99876.75
2022-12-27T23:59:39.529Z,99876.72
